sensor_id;sensor_type;location;lat;lon;timestamp;temperature;humidity
35491;DHT22;21605;52.068;20.806;2024-03-23T00:54:56;10.20;99.90
35491;DHT22;21605;52.068;20.806;2024-03-23T00:57:27;10.30;99.90
35491;DHT22;21605;52.068;20.806;2024-03-23T00:59:53;10.30;99.90
35491;DHT22;21605;52.068;20.806;2024-03-23T01:02:18;10.30;99.90
35491;DHT22;21605;52.068;20.806;2024-03-23T01:04:44;10.20;99.90
35491;DHT22;21605;52.068;20.806;2024-03-23T01:07:10;10.30;99.90
35491;DHT22;21605;52.068;20.806;2024-03-23T01:09:35;10.40;99.90
35491;DHT22;21605;52.068;20.806;2024-03-23T01:12:04;10.30;99.90
35491;DHT22;21605;52.068;20.806;2024-03-23T01:14:35;10.20;99.90
35491;DHT22;21605;52.068;20.806;2024-03-23T01:17:01;10.10;99.90
35491;DHT22;21605;52.068;20.806;2024-03-23T01:19:32;10.10;99.90
35491;DHT22;21605;52.068;20.806;2024-03-23T01:21:58;10.30;99.90
35491;DHT22;21605;52.068;20.806;2024-03-23T01:24:32;10.10;99.90
35491;DHT22;21605;52.068;20.806;2024-03-23T01:26:58;10.20;99.90
35491;DHT22;21605;52.068;20.806;2024-03-23T01:29:24;10.30;99.90
35491;DHT22;21605;52.068;20.806;2024-03-23T01:31:49;10.20;99.90
35491;DHT22;21605;52.068;20.806;2024-03-23T01:34:15;10.10;99.90
35491;DHT22;21605;52.068;20.806;2024-03-23T01:36:40;10.10;99.90
35491;DHT22;21605;52.068;20.806;2024-03-23T01:39:06;10.20;99.90
35491;DHT22;21605;52.068;20.806;2024-03-23T01:41:35;10.10;99.90
35491;DHT22;21605;52.068;20.806;2024-03-23T01:44:05;10.20;99.90
35491;DHT22;21605;52.068;20.806;2024-03-23T01:46:33;10.20;99.90
35491;DHT22;21605;52.068;20.806;2024-03-23T01:48:59;10.10;99.90
35491;DHT22;21605;52.068;20.806;2024-03-23T01:51:34;10.20;99.90
35491;DHT22;21605;52.068;20.806;2024-03-23T01:54:01;10.20;99.90
35491;DHT22;21605;52.068;20.806;2024-03-23T01:56:35;10.10;99.90
35491;DHT22;21605;52.068;20.806;2024-03-23T01:59:02;10.20;99.90
35491;DHT22;21605;52.068;20.806;2024-03-23T02:01:37;10.10;99.90
35491;DHT22;21605;52.068;20.806;2024-03-23T02:04:03;10.00;99.90
35491;DHT22;21605;52.068;20.806;2024-03-23T02:06:35;10.00;99.90
35491;DHT22;21605;52.068;20.806;2024-03-23T02:09:00;10.00;99.90
35491;DHT22;21605;52.068;20.806;2024-03-23T02:11:26;10.00;99.90
35491;DHT22;21605;52.068;20.806;2024-03-23T02:13:52;10.00;99.90
35491;DHT22;21605;52.068;20.806;2024-03-23T02:16:17;10.00;99.90
35491;DHT22;21605;52.068;20.806;2024-03-23T02:18:43;10.00;99.90
35491;DHT22;21605;52.068;20.806;2024-03-23T02:21:08;10.00;99.90
35491;DHT22;21605;52.068;20.806;2024-03-23T02:23:34;10.00;99.90
35491;DHT22;21605;52.068;20.806;2024-03-23T02:26:00;9.90;99.90
35491;DHT22;21605;52.068;20.806;2024-03-23T02:28:25;10.00;99.90
35491;DHT22;21605;52.068;20.806;2024-03-23T02:30:51;10.00;99.90
35491;DHT22;21605;52.068;20.806;2024-03-23T02:33:17;9.90;99.90
35491;DHT22;21605;52.068;20.806;2024-03-23T02:35:47;8.60;99.90
35491;DHT22;21605;52.068;20.806;2024-03-23T02:38:12;10.00;99.90
35491;DHT22;21605;52.068;20.806;2024-03-23T02:40:38;10.00;99.90
35491;DHT22;21605;52.068;20.806;2024-03-23T02:43:04;10.10;99.90
35491;DHT22;21605;52.068;20.806;2024-03-23T02:45:30;10.20;99.90
35491;DHT22;21605;52.068;20.806;2024-03-23T02:47:55;10.10;99.90
35491;DHT22;21605;52.068;20.806;2024-03-23T02:50:22;10.20;99.90
35491;DHT22;21605;52.068;20.806;2024-03-23T02:52:48;10.10;99.90
35491;DHT22;21605;52.068;20.806;2024-03-23T02:55:14;10.00;99.90
35491;DHT22;21605;52.068;20.806;2024-03-23T02:57:41;10.00;99.90
35491;DHT22;21605;52.068;20.806;2024-03-23T03:00:07;10.00;99.90
35491;DHT22;21605;52.068;20.806;2024-03-23T03:02:38;10.10;99.90
35491;DHT22;21605;52.068;20.806;2024-03-23T03:05:04;10.00;99.90
35491;DHT22;21605;52.068;20.806;2024-03-23T03:07:31;8.80;99.90
35491;DHT22;21605;52.068;20.806;2024-03-23T03:09:57;10.20;99.90
35491;DHT22;21605;52.068;20.806;2024-03-23T03:12:22;10.00;99.90
35491;DHT22;21605;52.068;20.806;2024-03-23T03:14:48;10.00;99.90
35491;DHT22;21605;52.068;20.806;2024-03-23T03:17:14;10.10;99.90
35491;DHT22;21605;52.068;20.806;2024-03-23T03:19:40;10.30;99.90
35491;DHT22;21605;52.068;20.806;2024-03-23T03:22:06;10.30;99.90
35491;DHT22;21605;52.068;20.806;2024-03-23T03:24:31;10.30;99.90
35491;DHT22;21605;52.068;20.806;2024-03-23T03:26:57;10.10;99.90
35491;DHT22;21605;52.068;20.806;2024-03-23T03:29:25;10.10;99.90
35491;DHT22;21605;52.068;20.806;2024-03-23T03:31:51;10.10;99.90
35491;DHT22;21605;52.068;20.806;2024-03-23T03:34:17;10.10;99.90
35491;DHT22;21605;52.068;20.806;2024-03-23T03:36:42;10.10;99.90
35491;DHT22;21605;52.068;20.806;2024-03-23T03:39:08;10.10;99.90
35491;DHT22;21605;52.068;20.806;2024-03-23T03:41:39;10.10;99.90
35491;DHT22;21605;52.068;20.806;2024-03-23T03:44:04;10.10;99.90
35491;DHT22;21605;52.068;20.806;2024-03-23T03:46:36;10.00;99.90
35491;DHT22;21605;52.068;20.806;2024-03-23T03:49:01;9.90;99.90
35491;DHT22;21605;52.068;20.806;2024-03-23T03:51:27;10.00;99.90
35491;DHT22;21605;52.068;20.806;2024-03-23T03:53:52;10.00;99.90
35491;DHT22;21605;52.068;20.806;2024-03-23T03:56:18;9.90;99.90
35491;DHT22;21605;52.068;20.806;2024-03-23T03:58:43;9.90;99.90
35491;DHT22;21605;52.068;20.806;2024-03-23T04:01:09;10.00;99.90
35491;DHT22;21605;52.068;20.806;2024-03-23T04:03:44;10.00;99.90
35491;DHT22;21605;52.068;20.806;2024-03-23T04:06:10;10.10;99.90
35491;DHT22;21605;52.068;20.806;2024-03-23T04:08:41;10.00;99.90
35491;DHT22;21605;52.068;20.806;2024-03-23T04:11:06;10.10;99.90
35491;DHT22;21605;52.068;20.806;2024-03-23T04:13:41;10.00;99.90
35491;DHT22;21605;52.068;20.806;2024-03-23T04:16:07;10.10;99.90
35491;DHT22;21605;52.068;20.806;2024-03-23T04:18:42;10.10;99.90
35491;DHT22;21605;52.068;20.806;2024-03-23T04:21:07;10.10;99.90
35491;DHT22;21605;52.068;20.806;2024-03-23T04:23:42;10.00;99.90
35491;DHT22;21605;52.068;20.806;2024-03-23T04:26:07;10.00;99.90
35491;DHT22;21605;52.068;20.806;2024-03-23T04:28:42;10.00;99.90
35491;DHT22;21605;52.068;20.806;2024-03-23T04:31:08;10.00;99.90
35491;DHT22;21605;52.068;20.806;2024-03-23T04:33:34;10.00;99.90
35491;DHT22;21605;52.068;20.806;2024-03-23T04:36:00;10.00;99.90
35491;DHT22;21605;52.068;20.806;2024-03-23T04:38:25;10.00;99.90
35491;DHT22;21605;52.068;20.806;2024-03-23T04:40:58;10.00;99.90
35491;DHT22;21605;52.068;20.806;2024-03-23T04:43:25;10.00;99.90
35491;DHT22;21605;52.068;20.806;2024-03-23T04:45:51;10.00;99.90
35491;DHT22;21605;52.068;20.806;2024-03-23T04:48:21;10.00;99.90
35491;DHT22;21605;52.068;20.806;2024-03-23T04:50:48;10.00;99.90
35491;DHT22;21605;52.068;20.806;2024-03-23T04:53:15;10.00;99.90
35491;DHT22;21605;52.068;20.806;2024-03-23T04:55:47;10.10;99.90
35491;DHT22;21605;52.068;20.806;2024-03-23T04:58:13;10.10;99.90
35491;DHT22;21605;52.068;20.806;2024-03-23T05:00:41;10.10;99.90
35491;DHT22;21605;52.068;20.806;2024-03-23T05:03:07;10.20;99.90
35491;DHT22;21605;52.068;20.806;2024-03-23T05:05:32;10.30;99.90
35491;DHT22;21605;52.068;20.806;2024-03-23T05:07:58;10.20;99.90
35491;DHT22;21605;52.068;20.806;2024-03-23T05:10:24;9.10;99.90
35491;DHT22;21605;52.068;20.806;2024-03-23T05:12:49;10.10;99.90
35491;DHT22;21605;52.068;20.806;2024-03-23T05:15:15;10.10;99.90
35491;DHT22;21605;52.068;20.806;2024-03-23T05:17:40;10.10;99.90
35491;DHT22;21605;52.068;20.806;2024-03-23T05:20:06;10.00;99.90
35491;DHT22;21605;52.068;20.806;2024-03-23T05:22:43;10.20;99.90
35491;DHT22;21605;52.068;20.806;2024-03-23T05:25:09;10.10;99.90
35491;DHT22;21605;52.068;20.806;2024-03-23T05:27:44;10.10;99.90
35491;DHT22;21605;52.068;20.806;2024-03-23T05:30:10;10.10;99.90
35491;DHT22;21605;52.068;20.806;2024-03-23T05:32:45;10.10;99.90
35491;DHT22;21605;52.068;20.806;2024-03-23T05:35:10;10.10;99.90
35491;DHT22;21605;52.068;20.806;2024-03-23T05:37:43;10.20;99.90
35491;DHT22;21605;52.068;20.806;2024-03-23T05:40:09;10.10;99.90
35491;DHT22;21605;52.068;20.806;2024-03-23T05:42:44;10.10;99.90
35491;DHT22;21605;52.068;20.806;2024-03-23T05:45:10;10.10;99.90
35491;DHT22;21605;52.068;20.806;2024-03-23T05:47:45;10.10;99.90
35491;DHT22;21605;52.068;20.806;2024-03-23T05:50:11;10.10;99.90
35491;DHT22;21605;52.068;20.806;2024-03-23T05:52:47;10.20;99.90
35491;DHT22;21605;52.068;20.806;2024-03-23T05:55:12;10.10;99.90
35491;DHT22;21605;52.068;20.806;2024-03-23T05:57:47;10.10;99.90
35491;DHT22;21605;52.068;20.806;2024-03-23T06:00:13;10.20;99.90
35491;DHT22;21605;52.068;20.806;2024-03-23T06:02:45;10.10;99.90
35491;DHT22;21605;52.068;20.806;2024-03-23T06:05:11;10.10;99.90
35491;DHT22;21605;52.068;20.806;2024-03-23T06:07:46;10.10;99.90
35491;DHT22;21605;52.068;20.806;2024-03-23T06:10:12;10.20;99.90
35491;DHT22;21605;52.068;20.806;2024-03-23T06:12:47;10.10;99.90
35491;DHT22;21605;52.068;20.806;2024-03-23T06:15:12;10.10;99.90
35491;DHT22;21605;52.068;20.806;2024-03-23T06:17:47;10.10;99.90
35491;DHT22;21605;52.068;20.806;2024-03-23T06:20:13;10.10;99.90
35491;DHT22;21605;52.068;20.806;2024-03-23T06:22:43;10.20;99.90
35491;DHT22;21605;52.068;20.806;2024-03-23T06:25:09;10.30;99.90
35491;DHT22;21605;52.068;20.806;2024-03-23T06:27:34;10.30;99.90
35491;DHT22;21605;52.068;20.806;2024-03-23T06:30:00;10.30;99.90
35491;DHT22;21605;52.068;20.806;2024-03-23T06:32:27;10.30;99.90
35491;DHT22;21605;52.068;20.806;2024-03-23T06:34:53;10.30;99.90
35491;DHT22;21605;52.068;20.806;2024-03-23T06:37:18;10.30;99.90
35491;DHT22;21605;52.068;20.806;2024-03-23T06:39:47;10.40;99.90
35491;DHT22;21605;52.068;20.806;2024-03-23T06:42:12;10.40;99.90
35491;DHT22;21605;52.068;20.806;2024-03-23T06:44:47;10.40;99.90
35491;DHT22;21605;52.068;20.806;2024-03-23T06:47:13;10.40;99.90
35491;DHT22;21605;52.068;20.806;2024-03-23T06:49:47;10.40;99.90
35491;DHT22;21605;52.068;20.806;2024-03-23T06:52:13;10.40;99.90
35491;DHT22;21605;52.068;20.806;2024-03-23T06:54:48;10.40;99.90
35491;DHT22;21605;52.068;20.806;2024-03-23T06:57:13;10.40;99.90
35491;DHT22;21605;52.068;20.806;2024-03-23T06:59:48;10.40;99.90
35491;DHT22;21605;52.068;20.806;2024-03-23T07:02:14;10.40;99.90
35491;DHT22;21605;52.068;20.806;2024-03-23T07:04:50;10.40;99.90
35491;DHT22;21605;52.068;20.806;2024-03-23T07:07:15;10.40;99.90
35491;DHT22;21605;52.068;20.806;2024-03-23T07:09:50;10.40;99.90
35491;DHT22;21605;52.068;20.806;2024-03-23T07:12:16;10.50;99.90
35491;DHT22;21605;52.068;20.806;2024-03-23T07:14:50;10.50;99.90
35491;DHT22;21605;52.068;20.806;2024-03-23T07:17:16;10.50;99.90
35491;DHT22;21605;52.068;20.806;2024-03-23T07:19:48;10.50;99.90
35491;DHT22;21605;52.068;20.806;2024-03-23T07:22:14;10.50;99.90
35491;DHT22;21605;52.068;20.806;2024-03-23T07:24:48;10.40;99.90
35491;DHT22;21605;52.068;20.806;2024-03-23T07:27:14;10.40;99.90
35491;DHT22;21605;52.068;20.806;2024-03-23T07:29:45;10.40;99.90
35491;DHT22;21605;52.068;20.806;2024-03-23T07:32:10;10.40;99.90
35491;DHT22;21605;52.068;20.806;2024-03-23T07:34:37;10.40;99.90
35491;DHT22;21605;52.068;20.806;2024-03-23T07:37:02;10.50;99.90
35491;DHT22;21605;52.068;20.806;2024-03-23T07:39:28;10.70;99.90
35491;DHT22;21605;52.068;20.806;2024-03-23T07:41:54;10.70;99.90
35491;DHT22;21605;52.068;20.806;2024-03-23T07:44:19;10.70;99.90
35491;DHT22;21605;52.068;20.806;2024-03-23T07:46:45;10.70;99.90
35491;DHT22;21605;52.068;20.806;2024-03-23T07:49:10;10.70;99.90
35491;DHT22;21605;52.068;20.806;2024-03-23T07:51:36;10.70;99.90
35491;DHT22;21605;52.068;20.806;2024-03-23T07:54:03;10.70;99.90
35491;DHT22;21605;52.068;20.806;2024-03-23T07:56:29;10.70;99.90
35491;DHT22;21605;52.068;20.806;2024-03-23T07:58:55;10.70;99.90
35491;DHT22;21605;52.068;20.806;2024-03-23T08:01:21;10.80;99.90
35491;DHT22;21605;52.068;20.806;2024-03-23T08:03:52;10.80;99.90
35491;DHT22;21605;52.068;20.806;2024-03-23T08:06:19;10.90;99.90
35491;DHT22;21605;52.068;20.806;2024-03-23T08:08:53;10.90;99.90
35491;DHT22;21605;52.068;20.806;2024-03-23T08:11:26;10.90;99.90
35491;DHT22;21605;52.068;20.806;2024-03-23T08:13:52;10.90;99.90
35491;DHT22;21605;52.068;20.806;2024-03-23T08:16:17;11.00;99.90
35491;DHT22;21605;52.068;20.806;2024-03-23T08:18:43;11.00;99.90
35491;DHT22;21605;52.068;20.806;2024-03-23T08:21:09;11.10;99.90
35491;DHT22;21605;52.068;20.806;2024-03-23T08:23:35;11.30;99.90
35491;DHT22;21605;52.068;20.806;2024-03-23T08:26:08;11.30;99.90
35491;DHT22;21605;52.068;20.806;2024-03-23T08:28:35;11.30;99.90
35491;DHT22;21605;52.068;20.806;2024-03-23T08:31:02;11.40;99.90
35491;DHT22;21605;52.068;20.806;2024-03-23T08:33:28;11.70;99.90
35491;DHT22;21605;52.068;20.806;2024-03-23T08:36:01;12.00;99.90
35491;DHT22;21605;52.068;20.806;2024-03-23T08:38:27;12.30;99.90
35491;DHT22;21605;52.068;20.806;2024-03-23T08:41:06;12.80;99.90
35491;DHT22;21605;52.068;20.806;2024-03-23T08:43:35;13.40;99.90
35491;DHT22;21605;52.068;20.806;2024-03-23T08:46:04;13.80;99.90
35491;DHT22;21605;52.068;20.806;2024-03-23T08:48:31;14.50;99.90
35491;DHT22;21605;52.068;20.806;2024-03-23T08:51:03;15.00;99.90
35491;DHT22;21605;52.068;20.806;2024-03-23T08:53:29;15.80;99.90
35491;DHT22;21605;52.068;20.806;2024-03-23T08:55:56;16.60;99.90
35491;DHT22;21605;52.068;20.806;2024-03-23T08:58:23;17.20;99.90
35491;DHT22;21605;52.068;20.806;2024-03-23T09:00:54;17.90;99.90
35491;DHT22;21605;52.068;20.806;2024-03-23T09:03:26;18.60;99.90
35491;DHT22;21605;52.068;20.806;2024-03-23T09:05:52;19.20;99.90
35491;DHT22;21605;52.068;20.806;2024-03-23T09:08:18;19.90;99.90
35491;DHT22;21605;52.068;20.806;2024-03-23T09:10:44;20.50;99.90
35491;DHT22;21605;52.068;20.806;2024-03-23T09:13:10;21.30;99.90
35491;DHT22;21605;52.068;20.806;2024-03-23T09:15:37;21.90;99.90
35491;DHT22;21605;52.068;20.806;2024-03-23T09:18:03;22.30;99.90
35491;DHT22;21605;52.068;20.806;2024-03-23T09:20:32;22.50;99.90
35491;DHT22;21605;52.068;20.806;2024-03-23T09:22:58;22.70;99.90
35491;DHT22;21605;52.068;20.806;2024-03-23T09:25:23;22.80;99.70
35491;DHT22;21605;52.068;20.806;2024-03-23T09:27:50;23.10;99.90
35491;DHT22;21605;52.068;20.806;2024-03-23T09:30:16;23.40;99.90
35491;DHT22;21605;52.068;20.806;2024-03-23T09:32:43;23.70;99.90
35491;DHT22;21605;52.068;20.806;2024-03-23T09:35:09;23.70;97.80
35491;DHT22;21605;52.068;20.806;2024-03-23T09:37:35;23.50;97.70
35491;DHT22;21605;52.068;20.806;2024-03-23T09:40:01;23.60;96.10
35491;DHT22;21605;52.068;20.806;2024-03-23T09:42:28;23.20;93.00
35491;DHT22;21605;52.068;20.806;2024-03-23T09:44:57;22.80;93.90
35491;DHT22;21605;52.068;20.806;2024-03-23T09:47:24;22.50;94.60
35491;DHT22;21605;52.068;20.806;2024-03-23T09:49:50;22.00;95.70
35491;DHT22;21605;52.068;20.806;2024-03-23T09:52:16;21.70;96.50
35491;DHT22;21605;52.068;20.806;2024-03-23T09:54:42;21.60;95.10
35491;DHT22;21605;52.068;20.806;2024-03-23T09:57:08;21.30;96.40
35491;DHT22;21605;52.068;20.806;2024-03-23T09:59:33;21.00;96.20
35491;DHT22;21605;52.068;20.806;2024-03-23T10:02:01;21.00;95.90
35491;DHT22;21605;52.068;20.806;2024-03-23T10:04:40;20.80;97.20
35491;DHT22;21605;52.068;20.806;2024-03-23T10:07:13;20.60;94.70
35491;DHT22;21605;52.068;20.806;2024-03-23T10:09:39;21.30;98.90
35491;DHT22;21605;52.068;20.806;2024-03-23T10:12:12;21.70;98.30
35491;DHT22;21605;52.068;20.806;2024-03-23T10:14:41;22.20;98.70
35491;DHT22;21605;52.068;20.806;2024-03-23T10:19:47;23.50;99.10
35491;DHT22;21605;52.068;20.806;2024-03-23T10:22:37;24.00;92.80
35491;DHT22;21605;52.068;20.806;2024-03-23T10:25:11;24.60;93.80
35491;DHT22;21605;52.068;20.806;2024-03-23T10:27:37;25.40;94.30
35491;DHT22;21605;52.068;20.806;2024-03-23T10:30:10;25.90;94.90
35491;DHT22;21605;52.068;20.806;2024-03-23T10:32:37;26.20;90.30
35491;DHT22;21605;52.068;20.806;2024-03-23T10:35:17;26.70;88.00
35491;DHT22;21605;52.068;20.806;2024-03-23T10:37:51;27.00;82.80
35491;DHT22;21605;52.068;20.806;2024-03-23T10:40:19;27.20;89.70
35491;DHT22;21605;52.068;20.806;2024-03-23T10:42:44;27.60;84.80
35491;DHT22;21605;52.068;20.806;2024-03-23T10:45:10;27.50;88.70
35491;DHT22;21605;52.068;20.806;2024-03-23T10:47:37;28.20;89.00
35491;DHT22;21605;52.068;20.806;2024-03-23T10:50:06;28.30;80.40
35491;DHT22;21605;52.068;20.806;2024-03-23T10:52:35;28.40;75.20
35491;DHT22;21605;52.068;20.806;2024-03-23T10:55:04;28.80;85.90
35491;DHT22;21605;52.068;20.806;2024-03-23T10:57:40;29.10;80.80
35491;DHT22;21605;52.068;20.806;2024-03-23T11:00:08;29.10;78.90
35491;DHT22;21605;52.068;20.806;2024-03-23T11:02:34;29.20;72.00
35491;DHT22;21605;52.068;20.806;2024-03-23T11:05:00;29.10;76.70
35491;DHT22;21605;52.068;20.806;2024-03-23T11:07:33;29.20;73.50
35491;DHT22;21605;52.068;20.806;2024-03-23T11:09:59;29.40;79.40
35491;DHT22;21605;52.068;20.806;2024-03-23T11:12:29;29.30;71.00
35491;DHT22;21605;52.068;20.806;2024-03-23T11:15:11;29.10;70.60
35491;DHT22;21605;52.068;20.806;2024-03-23T11:17:37;29.00;65.60
35491;DHT22;21605;52.068;20.806;2024-03-23T11:20:04;29.00;70.40
35491;DHT22;21605;52.068;20.806;2024-03-23T11:22:46;28.70;68.60
35491;DHT22;21605;52.068;20.806;2024-03-23T11:25:27;28.10;67.30
35491;DHT22;21605;52.068;20.806;2024-03-23T11:27:58;27.60;70.80
35491;DHT22;21605;52.068;20.806;2024-03-23T11:30:26;27.10;66.00
35491;DHT22;21605;52.068;20.806;2024-03-23T11:33:02;26.30;67.50
35491;DHT22;21605;52.068;20.806;2024-03-23T11:35:32;25.40;65.50
35491;DHT22;21605;52.068;20.806;2024-03-23T11:38:14;25.20;64.30
35491;DHT22;21605;52.068;20.806;2024-03-23T11:40:41;24.50;67.90
35491;DHT22;21605;52.068;20.806;2024-03-23T11:43:10;24.30;66.60
35491;DHT22;21605;52.068;20.806;2024-03-23T11:45:46;24.00;66.60
35491;DHT22;21605;52.068;20.806;2024-03-23T11:48:13;23.70;67.70
35491;DHT22;21605;52.068;20.806;2024-03-23T11:50:43;23.40;68.50
35491;DHT22;21605;52.068;20.806;2024-03-23T11:53:17;23.20;68.10
35491;DHT22;21605;52.068;20.806;2024-03-23T11:55:50;22.60;68.30
35491;DHT22;21605;52.068;20.806;2024-03-23T11:58:23;22.40;67.70
35491;DHT22;21605;52.068;20.806;2024-03-23T12:01:02;21.90;67.00
35491;DHT22;21605;52.068;20.806;2024-03-23T12:03:28;21.80;70.20
35491;DHT22;21605;52.068;20.806;2024-03-23T12:05:55;21.60;68.90
35491;DHT22;21605;52.068;20.806;2024-03-23T12:08:31;21.50;69.80
35491;DHT22;21605;52.068;20.806;2024-03-23T12:11:06;21.30;69.80
35491;DHT22;21605;52.068;20.806;2024-03-23T12:13:33;21.10;69.90
35491;DHT22;21605;52.068;20.806;2024-03-23T12:16:28;20.90;70.40
35491;DHT22;21605;52.068;20.806;2024-03-23T12:19:05;20.70;70.10
35491;DHT22;21605;52.068;20.806;2024-03-23T12:21:31;20.70;71.20
35491;DHT22;21605;52.068;20.806;2024-03-23T12:23:57;20.50;71.50
35491;DHT22;21605;52.068;20.806;2024-03-23T12:26:24;20.50;71.90
35491;DHT22;21605;52.068;20.806;2024-03-23T12:28:49;20.50;71.70
35491;DHT22;21605;52.068;20.806;2024-03-23T12:31:15;20.40;71.70
35491;DHT22;21605;52.068;20.806;2024-03-23T12:33:40;20.40;72.40
35491;DHT22;21605;52.068;20.806;2024-03-23T12:36:06;20.30;72.50
35491;DHT22;21605;52.068;20.806;2024-03-23T12:38:32;20.20;71.40
35491;DHT22;21605;52.068;20.806;2024-03-23T12:40:57;20.00;71.40
35491;DHT22;21605;52.068;20.806;2024-03-23T12:43:23;19.90;72.70
35491;DHT22;21605;52.068;20.806;2024-03-23T12:45:49;19.70;72.90
35491;DHT22;21605;52.068;20.806;2024-03-23T12:48:15;19.70;72.00
35491;DHT22;21605;52.068;20.806;2024-03-23T12:50:41;19.50;72.00
35491;DHT22;21605;52.068;20.806;2024-03-23T12:53:07;19.40;72.10
35491;DHT22;21605;52.068;20.806;2024-03-23T12:55:35;19.30;72.70
35491;DHT22;21605;52.068;20.806;2024-03-23T12:58:01;19.20;73.20
35491;DHT22;21605;52.068;20.806;2024-03-23T13:00:27;19.00;73.20
35491;DHT22;21605;52.068;20.806;2024-03-23T13:02:53;18.90;75.30
35491;DHT22;21605;52.068;20.806;2024-03-23T13:05:18;18.70;74.40
35491;DHT22;21605;52.068;20.806;2024-03-23T13:07:44;18.70;74.70
35491;DHT22;21605;52.068;20.806;2024-03-23T13:10:10;18.60;75.50
35491;DHT22;21605;52.068;20.806;2024-03-23T13:12:35;18.50;75.10
35491;DHT22;21605;52.068;20.806;2024-03-23T13:15:05;18.40;75.60
35491;DHT22;21605;52.068;20.806;2024-03-23T13:17:30;18.40;76.20
35491;DHT22;21605;52.068;20.806;2024-03-23T13:19:57;18.50;76.10
35491;DHT22;21605;52.068;20.806;2024-03-23T13:22:23;18.60;75.90
35491;DHT22;21605;52.068;20.806;2024-03-23T13:24:48;18.60;77.10
35491;DHT22;21605;52.068;20.806;2024-03-23T13:27:14;18.50;76.60
35491;DHT22;21605;52.068;20.806;2024-03-23T13:29:40;18.50;76.30
35491;DHT22;21605;52.068;20.806;2024-03-23T13:32:06;18.50;76.50
35491;DHT22;21605;52.068;20.806;2024-03-23T13:34:32;18.50;75.60
35491;DHT22;21605;52.068;20.806;2024-03-23T13:37:04;18.40;76.20
35491;DHT22;21605;52.068;20.806;2024-03-23T13:39:32;18.20;77.00
35491;DHT22;21605;52.068;20.806;2024-03-23T13:42:07;18.10;77.10
35491;DHT22;21605;52.068;20.806;2024-03-23T13:44:34;18.10;76.80
35491;DHT22;21605;52.068;20.806;2024-03-23T13:47:00;18.10;77.10
35491;DHT22;21605;52.068;20.806;2024-03-23T13:49:28;18.00;77.60
35491;DHT22;21605;52.068;20.806;2024-03-23T13:52:06;17.90;77.80
35491;DHT22;21605;52.068;20.806;2024-03-23T13:54:32;17.90;77.90
35491;DHT22;21605;52.068;20.806;2024-03-23T13:56:58;17.80;78.20
35491;DHT22;21605;52.068;20.806;2024-03-23T13:59:23;17.80;78.60
35491;DHT22;21605;52.068;20.806;2024-03-23T14:01:50;17.70;78.60
35491;DHT22;21605;52.068;20.806;2024-03-23T14:04:16;17.70;78.70
35491;DHT22;21605;52.068;20.806;2024-03-23T14:06:43;17.60;79.30
35491;DHT22;21605;52.068;20.806;2024-03-23T14:09:10;17.50;79.20
35491;DHT22;21605;52.068;20.806;2024-03-23T14:11:36;17.50;79.70
35491;DHT22;21605;52.068;20.806;2024-03-23T14:14:07;17.40;79.90
35491;DHT22;21605;52.068;20.806;2024-03-23T14:16:33;17.40;79.70
35491;DHT22;21605;52.068;20.806;2024-03-23T14:18:59;17.40;79.90
35491;DHT22;21605;52.068;20.806;2024-03-23T14:21:25;17.30;80.40
35491;DHT22;21605;52.068;20.806;2024-03-23T14:23:51;17.20;81.30
35491;DHT22;21605;52.068;20.806;2024-03-23T14:26:16;17.10;81.90
35491;DHT22;21605;52.068;20.806;2024-03-23T14:28:42;17.00;81.80
35491;DHT22;21605;52.068;20.806;2024-03-23T14:31:08;17.00;82.60
35491;DHT22;21605;52.068;20.806;2024-03-23T14:33:37;17.10;82.10
35491;DHT22;21605;52.068;20.806;2024-03-23T14:36:09;17.10;82.10
35491;DHT22;21605;52.068;20.806;2024-03-23T14:38:34;17.10;82.20
35491;DHT22;21605;52.068;20.806;2024-03-23T14:41:09;17.10;82.40
35491;DHT22;21605;52.068;20.806;2024-03-23T14:43:34;17.00;82.90
35491;DHT22;21605;52.068;20.806;2024-03-23T14:46:14;16.90;82.90
35491;DHT22;21605;52.068;20.806;2024-03-23T14:48:41;16.90;84.30
35491;DHT22;21605;52.068;20.806;2024-03-23T14:51:08;16.80;85.40
35491;DHT22;21605;52.068;20.806;2024-03-23T14:53:38;16.70;86.60
35491;DHT22;21605;52.068;20.806;2024-03-23T14:56:06;16.60;88.10
35491;DHT22;21605;52.068;20.806;2024-03-23T14:58:32;16.60;88.90
35491;DHT22;21605;52.068;20.806;2024-03-23T15:01:09;16.50;90.00
35491;DHT22;21605;52.068;20.806;2024-03-23T15:03:38;16.50;90.20
35491;DHT22;21605;52.068;20.806;2024-03-23T15:06:09;16.40;91.20
35491;DHT22;21605;52.068;20.806;2024-03-23T15:08:36;16.40;91.60
35491;DHT22;21605;52.068;20.806;2024-03-23T15:11:10;16.30;92.30
35491;DHT22;21605;52.068;20.806;2024-03-23T15:13:37;16.10;94.40
35491;DHT22;21605;52.068;20.806;2024-03-23T15:16:16;15.80;97.20
35491;DHT22;21605;52.068;20.806;2024-03-23T15:18:41;15.50;99.90
35491;DHT22;21605;52.068;20.806;2024-03-23T15:21:12;15.40;99.90
35491;DHT22;21605;52.068;20.806;2024-03-23T15:23:40;15.20;99.90
35491;DHT22;21605;52.068;20.806;2024-03-23T15:26:11;15.00;99.90
35491;DHT22;21605;52.068;20.806;2024-03-23T15:28:37;14.90;99.90
35491;DHT22;21605;52.068;20.806;2024-03-23T15:31:21;14.80;99.90
35491;DHT22;21605;52.068;20.806;2024-03-23T15:33:47;14.60;99.90
35491;DHT22;21605;52.068;20.806;2024-03-23T15:36:12;14.60;99.90
35491;DHT22;21605;52.068;20.806;2024-03-23T15:38:38;14.50;99.90
35491;DHT22;21605;52.068;20.806;2024-03-23T15:41:12;14.50;99.90
35491;DHT22;21605;52.068;20.806;2024-03-23T15:43:38;14.40;99.90
35491;DHT22;21605;52.068;20.806;2024-03-23T15:46:13;14.30;99.90
35491;DHT22;21605;52.068;20.806;2024-03-23T15:48:39;14.20;99.90
35491;DHT22;21605;52.068;20.806;2024-03-23T15:51:14;14.40;99.90
35491;DHT22;21605;52.068;20.806;2024-03-23T15:53:40;14.40;99.90
35491;DHT22;21605;52.068;20.806;2024-03-23T15:56:15;14.50;99.90
35491;DHT22;21605;52.068;20.806;2024-03-23T15:58:41;14.60;99.90
35491;DHT22;21605;52.068;20.806;2024-03-23T16:01:15;14.60;99.90
35491;DHT22;21605;52.068;20.806;2024-03-23T16:03:41;14.50;99.90
35491;DHT22;21605;52.068;20.806;2024-03-23T16:06:12;14.40;99.90
35491;DHT22;21605;52.068;20.806;2024-03-23T16:08:38;14.20;99.90
35491;DHT22;21605;52.068;20.806;2024-03-23T16:11:13;14.20;99.90
35491;DHT22;21605;52.068;20.806;2024-03-23T16:13:38;14.20;99.90
35491;DHT22;21605;52.068;20.806;2024-03-23T16:16:06;14.10;99.90
35491;DHT22;21605;52.068;20.806;2024-03-23T16:18:33;14.00;99.90
35491;DHT22;21605;52.068;20.806;2024-03-23T16:21:01;14.00;99.90